sensor_id;sensor_type;location;lat;lon;timestamp;pressure;altitude;pressure_sealevel;temperature;humidity
76864;BME280;65834;52.364;9.754;2023-06-10T00:00:36;101039.84;;;20.32;45.45
76864;BME280;65834;52.364;9.754;2023-06-10T00:03:08;101034.84;;;20.29;45.68
76864;BME280;65834;52.364;9.754;2023-06-10T00:05:39;101035.06;;;20.16;46.14
76864;BME280;65834;52.364;9.754;2023-06-10T00:08:08;101040.81;;;20.14;46.72
76864;BME280;65834;52.364;9.754;2023-06-10T00:10:41;101043.66;;;20.08;46.52
76864;BME280;65834;52.364;9.754;2023-06-10T00:13:10;101038.41;;;20.06;46.73
76864;BME280;65834;52.364;9.754;2023-06-10T00:15:40;101042.59;;;20.09;46.57
76864;BME280;65834;52.364;9.754;2023-06-10T00:18:09;101046.16;;;20.09;46.90
76864;BME280;65834;52.364;9.754;2023-06-10T00:20:39;101047.22;;;19.96;47.07
76864;BME280;65834;52.364;9.754;2023-06-10T00:23:09;101046.41;;;19.96;46.83
76864;BME280;65834;52.364;9.754;2023-06-10T00:25:41;101042.09;;;19.88;47.08
76864;BME280;65834;52.364;9.754;2023-06-10T00:28:11;101040.69;;;19.74;47.59
76864;BME280;65834;52.364;9.754;2023-06-10T00:30:40;101047.59;;;19.77;47.42
76864;BME280;65834;52.364;9.754;2023-06-10T00:33:10;101043.91;;;19.83;47.70
76864;BME280;65834;52.364;9.754;2023-06-10T00:35:39;101034.69;;;19.66;47.94
76864;BME280;65834;52.364;9.754;2023-06-10T00:38:09;101040.91;;;19.73;47.89
76864;BME280;65834;52.364;9.754;2023-06-10T00:40:41;101039.94;;;19.56;48.32
76864;BME280;65834;52.364;9.754;2023-06-10T00:43:11;101042.69;;;19.67;48.13
76864;BME280;65834;52.364;9.754;2023-06-10T00:45:40;101049.72;;;19.63;48.47
76864;BME280;65834;52.364;9.754;2023-06-10T00:48:10;101044.94;;;19.59;48.68
76864;BME280;65834;52.364;9.754;2023-06-10T00:50:40;101045.75;;;19.47;48.96
76864;BME280;65834;52.364;9.754;2023-06-10T00:53:10;101047.44;;;19.48;49.32
76864;BME280;65834;52.364;9.754;2023-06-10T00:55:43;101046.03;;;19.28;49.95
76864;BME280;65834;52.364;9.754;2023-06-10T00:58:12;101046.94;;;19.10;50.72
76864;BME280;65834;52.364;9.754;2023-06-10T01:00:42;101051.16;;;18.94;51.09
76864;BME280;65834;52.364;9.754;2023-06-10T01:03:12;101053.38;;;18.86;51.31
76864;BME280;65834;52.364;9.754;2023-06-10T01:05:46;101051.44;;;19.05;51.06
76864;BME280;65834;52.364;9.754;2023-06-10T01:08:28;101045.69;;;18.94;51.28
76864;BME280;65834;52.364;9.754;2023-06-10T01:11:08;101041.88;;;19.25;51.13
76864;BME280;65834;52.364;9.754;2023-06-10T01:13:43;101051.06;;;19.01;51.29
76864;BME280;65834;52.364;9.754;2023-06-10T01:16:14;101051.69;;;19.03;51.71
76864;BME280;65834;52.364;9.754;2023-06-10T01:18:44;101048.13;;;19.14;51.29
76864;BME280;65834;52.364;9.754;2023-06-10T01:21:19;101048.13;;;19.14;51.35
76864;BME280;65834;52.364;9.754;2023-06-10T01:23:52;101050.78;;;18.91;51.76
76864;BME280;65834;52.364;9.754;2023-06-10T01:26:25;101059.09;;;18.84;52.59
76864;BME280;65834;52.364;9.754;2023-06-10T01:29:00;101057.84;;;18.99;52.11
76864;BME280;65834;52.364;9.754;2023-06-10T01:31:44;101051.94;;;18.83;52.98
76864;BME280;65834;52.364;9.754;2023-06-10T01:34:21;101058.50;;;18.82;53.01
76864;BME280;65834;52.364;9.754;2023-06-10T01:36:57;101059.44;;;18.76;53.21
76864;BME280;65834;52.364;9.754;2023-06-10T01:39:27;101062.75;;;18.78;53.51
76864;BME280;65834;52.364;9.754;2023-06-10T01:41:57;101051.19;;;18.76;53.79
76864;BME280;65834;52.364;9.754;2023-06-10T01:44:29;101058.72;;;18.81;53.96
76864;BME280;65834;52.364;9.754;2023-06-10T01:47:00;101053.16;;;18.33;55.46
76864;BME280;65834;52.364;9.754;2023-06-10T01:49:29;101064.13;;;18.33;55.50
76864;BME280;65834;52.364;9.754;2023-06-10T01:52:02;101056.16;;;18.50;55.18
76864;BME280;65834;52.364;9.754;2023-06-10T01:54:32;101063.28;;;18.32;55.86
76864;BME280;65834;52.364;9.754;2023-06-10T01:57:03;101055.06;;;18.32;56.10
76864;BME280;65834;52.364;9.754;2023-06-10T01:59:33;101064.47;;;18.36;55.99
76864;BME280;65834;52.364;9.754;2023-06-10T02:02:03;101060.81;;;18.06;57.56
76864;BME280;65834;52.364;9.754;2023-06-10T02:04:33;101066.16;;;18.37;56.51
76864;BME280;65834;52.364;9.754;2023-06-10T02:07:05;101064.34;;;18.31;56.81
76864;BME280;65834;52.364;9.754;2023-06-10T02:09:35;101074.38;;;18.19;57.04
76864;BME280;65834;52.364;9.754;2023-06-10T02:12:06;101074.88;;;18.10;57.46
76864;BME280;65834;52.364;9.754;2023-06-10T02:14:35;101087.09;;;18.32;56.74
76864;BME280;65834;52.364;9.754;2023-06-10T02:17:05;101084.72;;;18.17;57.31
76864;BME280;65834;52.364;9.754;2023-06-10T02:19:41;101086.38;;;18.18;57.42
76864;BME280;65834;52.364;9.754;2023-06-10T02:22:16;101080.41;;;18.03;58.37
76864;BME280;65834;52.364;9.754;2023-06-10T02:24:46;101084.25;;;17.77;58.75
76864;BME280;65834;52.364;9.754;2023-06-10T02:27:16;101090.53;;;18.03;58.07
76864;BME280;65834;52.364;9.754;2023-06-10T02:29:46;101091.69;;;18.13;57.84
76864;BME280;65834;52.364;9.754;2023-06-10T02:32:16;101092.91;;;17.99;58.28
76864;BME280;65834;52.364;9.754;2023-06-10T02:34:46;101088.13;;;17.88;58.85
76864;BME280;65834;52.364;9.754;2023-06-10T02:37:19;101091.88;;;17.69;59.15
76864;BME280;65834;52.364;9.754;2023-06-10T02:39:49;101092.16;;;17.54;60.11
76864;BME280;65834;52.364;9.754;2023-06-10T02:42:18;101095.13;;;17.59;59.78
76864;BME280;65834;52.364;9.754;2023-06-10T02:44:48;101094.13;;;17.47;60.10
76864;BME280;65834;52.364;9.754;2023-06-10T02:47:28;101091.78;;;17.19;61.20
76864;BME280;65834;52.364;9.754;2023-06-10T02:49:58;101089.16;;;17.38;60.74
76864;BME280;65834;52.364;9.754;2023-06-10T02:52:33;101092.41;;;17.53;60.18
76864;BME280;65834;52.364;9.754;2023-06-10T02:55:03;101095.06;;;17.34;60.83
76864;BME280;65834;52.364;9.754;2023-06-10T02:57:33;101105.44;;;17.51;60.51
76864;BME280;65834;52.364;9.754;2023-06-10T03:00:05;101105.25;;;17.14;61.48
76864;BME280;65834;52.364;9.754;2023-06-10T03:02:39;101095.16;;;17.15;61.64
76864;BME280;65834;52.364;9.754;2023-06-10T03:05:10;101098.69;;;17.22;61.01
76864;BME280;65834;52.364;9.754;2023-06-10T03:07:45;101101.19;;;17.23;61.12
76864;BME280;65834;52.364;9.754;2023-06-10T03:10:15;101098.84;;;17.33;60.99
76864;BME280;65834;52.364;9.754;2023-06-10T03:12:45;101110.50;;;17.16;61.50
76864;BME280;65834;52.364;9.754;2023-06-10T03:15:15;101102.63;;;17.32;60.87
76864;BME280;65834;52.364;9.754;2023-06-10T03:17:48;101109.44;;;17.17;61.39
76864;BME280;65834;52.364;9.754;2023-06-10T03:20:18;101109.72;;;17.02;61.89
76864;BME280;65834;52.364;9.754;2023-06-10T03:22:51;101110.56;;;17.03;61.98
76864;BME280;65834;52.364;9.754;2023-06-10T03:25:21;101103.50;;;16.89;62.39
76864;BME280;65834;52.364;9.754;2023-06-10T03:27:53;101110.50;;;16.71;63.02
76864;BME280;65834;52.364;9.754;2023-06-10T03:30:23;101108.78;;;16.77;62.96
76864;BME280;65834;52.364;9.754;2023-06-10T03:32:53;101108.75;;;16.84;62.58
76864;BME280;65834;52.364;9.754;2023-06-10T03:35:26;101107.00;;;17.02;61.94
76864;BME280;65834;52.364;9.754;2023-06-10T03:37:59;101104.53;;;16.88;62.51
76864;BME280;65834;52.364;9.754;2023-06-10T03:40:30;101102.13;;;17.04;61.73
76864;BME280;65834;52.364;9.754;2023-06-10T03:43:00;101112.63;;;17.07;61.78
76864;BME280;65834;52.364;9.754;2023-06-10T03:45:30;101110.66;;;16.83;62.82
76864;BME280;65834;52.364;9.754;2023-06-10T03:48:01;101110.84;;;16.88;62.50
76864;BME280;65834;52.364;9.754;2023-06-10T03:50:40;101116.13;;;16.76;62.54
76864;BME280;65834;52.364;9.754;2023-06-10T03:53:13;101116.75;;;16.85;62.54
76864;BME280;65834;52.364;9.754;2023-06-10T03:55:44;101123.25;;;16.84;62.46
76864;BME280;65834;52.364;9.754;2023-06-10T03:58:17;101118.41;;;16.86;62.41
76864;BME280;65834;52.364;9.754;2023-06-10T04:00:46;101125.78;;;16.86;62.30
76864;BME280;65834;52.364;9.754;2023-06-10T04:03:16;101133.59;;;16.82;62.54
76864;BME280;65834;52.364;9.754;2023-06-10T04:05:50;101140.97;;;16.75;62.76
76864;BME280;65834;52.364;9.754;2023-06-10T04:08:22;101141.19;;;16.54;63.84
76864;BME280;65834;52.364;9.754;2023-06-10T04:10:52;101138.22;;;16.75;62.91
76864;BME280;65834;52.364;9.754;2023-06-10T04:13:23;101137.53;;;16.93;62.52
76864;BME280;65834;52.364;9.754;2023-06-10T04:15:55;101147.00;;;16.84;62.60
76864;BME280;65834;52.364;9.754;2023-06-10T04:18:26;101140.06;;;16.88;62.33
76864;BME280;65834;52.364;9.754;2023-06-10T04:20:59;101131.91;;;16.81;62.28
76864;BME280;65834;52.364;9.754;2023-06-10T04:23:32;101134.84;;;16.79;62.35
76864;BME280;65834;52.364;9.754;2023-06-10T04:26:03;101133.00;;;16.67;63.06
76864;BME280;65834;52.364;9.754;2023-06-10T04:28:33;101128.56;;;16.72;62.79
76864;BME280;65834;52.364;9.754;2023-06-10T04:31:03;101130.69;;;16.64;63.22
76864;BME280;65834;52.364;9.754;2023-06-10T04:33:32;101136.97;;;16.71;62.93
76864;BME280;65834;52.364;9.754;2023-06-10T04:36:04;101125.84;;;16.66;62.92
76864;BME280;65834;52.364;9.754;2023-06-10T04:38:38;101118.28;;;16.61;63.16
76864;BME280;65834;52.364;9.754;2023-06-10T04:41:08;101127.34;;;16.49;63.73
76864;BME280;65834;52.364;9.754;2023-06-10T04:43:38;101130.47;;;16.59;63.32
76864;BME280;65834;52.364;9.754;2023-06-10T04:46:08;101122.09;;;16.60;63.24
76864;BME280;65834;52.364;9.754;2023-06-10T04:48:40;101132.59;;;16.63;63.07
76864;BME280;65834;52.364;9.754;2023-06-10T04:51:11;101117.88;;;16.51;63.73
76864;BME280;65834;52.364;9.754;2023-06-10T04:53:43;101133.03;;;16.60;63.30
76864;BME280;65834;52.364;9.754;2023-06-10T04:56:13;101127.16;;;16.57;63.51
76864;BME280;65834;52.364;9.754;2023-06-10T04:58:42;101131.34;;;16.59;63.34
76864;BME280;65834;52.364;9.754;2023-06-10T05:01:12;101129.44;;;16.66;63.00
76864;BME280;65834;52.364;9.754;2023-06-10T05:03:42;101133.63;;;16.43;64.14
76864;BME280;65834;52.364;9.754;2023-06-10T05:06:11;101123.53;;;16.50;63.97
76864;BME280;65834;52.364;9.754;2023-06-10T05:08:43;101128.34;;;16.67;62.67
76864;BME280;65834;52.364;9.754;2023-06-10T05:11:13;101126.91;;;16.65;62.64
76864;BME280;65834;52.364;9.754;2023-06-10T05:13:42;101137.81;;;16.71;62.83
76864;BME280;65834;52.364;9.754;2023-06-10T05:16:12;101140.59;;;16.32;64.45
76864;BME280;65834;52.364;9.754;2023-06-10T05:18:42;101138.47;;;16.54;63.72
76864;BME280;65834;52.364;9.754;2023-06-10T05:21:12;101138.47;;;16.67;62.95
76864;BME280;65834;52.364;9.754;2023-06-10T05:23:44;101133.22;;;16.59;63.50
76864;BME280;65834;52.364;9.754;2023-06-10T05:26:14;101141.81;;;16.62;63.42
76864;BME280;65834;52.364;9.754;2023-06-10T05:28:44;101138.69;;;16.59;63.28
76864;BME280;65834;52.364;9.754;2023-06-10T05:31:14;101138.66;;;16.72;62.70
76864;BME280;65834;52.364;9.754;2023-06-10T05:33:43;101128.16;;;16.69;62.68
76864;BME280;65834;52.364;9.754;2023-06-10T05:36:13;101127.72;;;16.78;62.27
76864;BME280;65834;52.364;9.754;2023-06-10T05:38:46;101133.38;;;16.70;63.13
76864;BME280;65834;52.364;9.754;2023-06-10T05:41:16;101136.09;;;16.77;62.32
76864;BME280;65834;52.364;9.754;2023-06-10T05:43:45;101134.63;;;16.81;62.46
76864;BME280;65834;52.364;9.754;2023-06-10T05:46:15;101131.75;;;16.63;63.73
76864;BME280;65834;52.364;9.754;2023-06-10T05:48:44;101131.06;;;16.74;62.84
76864;BME280;65834;52.364;9.754;2023-06-10T05:51:14;101127.28;;;16.82;62.86
76864;BME280;65834;52.364;9.754;2023-06-10T05:53:46;101127.88;;;16.90;63.01
76864;BME280;65834;52.364;9.754;2023-06-10T05:56:16;101124.53;;;16.88;62.46
76864;BME280;65834;52.364;9.754;2023-06-10T05:58:45;101119.25;;;16.87;62.50
76864;BME280;65834;52.364;9.754;2023-06-10T06:01:15;101121.75;;;16.95;62.55
76864;BME280;65834;52.364;9.754;2023-06-10T06:03:44;101123.84;;;16.93;62.54
76864;BME280;65834;52.364;9.754;2023-06-10T06:06:14;101117.53;;;16.92;62.59
76864;BME280;65834;52.364;9.754;2023-06-10T06:08:49;101127.03;;;16.90;63.30
76864;BME280;65834;52.364;9.754;2023-06-10T06:11:19;101119.63;;;16.97;62.82
76864;BME280;65834;52.364;9.754;2023-06-10T06:13:48;101124.66;;;17.06;62.23
76864;BME280;65834;52.364;9.754;2023-06-10T06:16:19;101126.53;;;17.06;62.67
76864;BME280;65834;52.364;9.754;2023-06-10T06:18:49;101131.97;;;17.12;62.11
76864;BME280;65834;52.364;9.754;2023-06-10T06:21:18;101125.63;;;17.18;62.05
76864;BME280;65834;52.364;9.754;2023-06-10T06:23:50;101136.13;;;17.21;62.52
76864;BME280;65834;52.364;9.754;2023-06-10T06:26:20;101137.38;;;17.25;61.90
76864;BME280;65834;52.364;9.754;2023-06-10T06:28:50;101138.84;;;17.28;62.04
76864;BME280;65834;52.364;9.754;2023-06-10T06:31:19;101143.66;;;17.26;61.54
76864;BME280;65834;52.364;9.754;2023-06-10T06:33:49;101143.22;;;17.29;61.96
76864;BME280;65834;52.364;9.754;2023-06-10T06:36:18;101140.13;;;17.25;61.80
76864;BME280;65834;52.364;9.754;2023-06-10T06:38:51;101140.28;;;17.30;61.85
76864;BME280;65834;52.364;9.754;2023-06-10T06:41:22;101136.69;;;17.37;61.87
76864;BME280;65834;52.364;9.754;2023-06-10T06:43:53;101135.84;;;17.36;61.69
76864;BME280;65834;52.364;9.754;2023-06-10T06:46:24;101141.53;;;17.34;62.07
76864;BME280;65834;52.364;9.754;2023-06-10T06:48:55;101136.94;;;17.28;62.13
76864;BME280;65834;52.364;9.754;2023-06-10T06:51:24;101132.72;;;17.26;62.28
76864;BME280;65834;52.364;9.754;2023-06-10T06:53:57;101126.00;;;17.28;62.33
76864;BME280;65834;52.364;9.754;2023-06-10T06:56:27;101127.03;;;17.34;62.21
76864;BME280;65834;52.364;9.754;2023-06-10T06:58:57;101138.97;;;17.40;61.84
76864;BME280;65834;52.364;9.754;2023-06-10T07:01:26;101127.16;;;17.46;61.70
76864;BME280;65834;52.364;9.754;2023-06-10T07:03:56;101134.75;;;17.44;62.80
76864;BME280;65834;52.364;9.754;2023-06-10T07:06:26;101138.06;;;17.52;61.82
76864;BME280;65834;52.364;9.754;2023-06-10T07:08:58;101134.25;;;17.60;61.25
76864;BME280;65834;52.364;9.754;2023-06-10T07:11:30;101142.88;;;17.57;61.44
76864;BME280;65834;52.364;9.754;2023-06-10T07:13:59;101137.81;;;17.60;61.34
76864;BME280;65834;52.364;9.754;2023-06-10T07:16:29;101137.41;;;17.57;61.91
76864;BME280;65834;52.364;9.754;2023-06-10T07:18:58;101138.91;;;17.59;61.73
76864;BME280;65834;52.364;9.754;2023-06-10T07:21:31;101139.91;;;17.65;61.23
76864;BME280;65834;52.364;9.754;2023-06-10T07:24:06;101144.94;;;17.68;61.49
76864;BME280;65834;52.364;9.754;2023-06-10T07:26:35;101153.19;;;17.61;62.00
76864;BME280;65834;52.364;9.754;2023-06-10T07:29:05;101152.94;;;17.63;61.50
76864;BME280;65834;52.364;9.754;2023-06-10T07:31:34;101156.88;;;17.73;61.82
76864;BME280;65834;52.364;9.754;2023-06-10T07:34:04;101147.63;;;17.74;60.90
76864;BME280;65834;52.364;9.754;2023-06-10T07:36:34;101147.16;;;17.84;61.41
76864;BME280;65834;52.364;9.754;2023-06-10T07:39:06;101150.50;;;17.86;61.88
76864;BME280;65834;52.364;9.754;2023-06-10T07:41:36;101146.25;;;17.90;60.65
76864;BME280;65834;52.364;9.754;2023-06-10T07:44:06;101153.56;;;17.96;61.09
76864;BME280;65834;52.364;9.754;2023-06-10T07:46:35;101150.84;;;17.96;60.70
76864;BME280;65834;52.364;9.754;2023-06-10T07:49:05;101146.81;;;17.99;60.98
76864;BME280;65834;52.364;9.754;2023-06-10T07:51:35;101145.06;;;18.04;60.53
76864;BME280;65834;52.364;9.754;2023-06-10T07:54:07;101150.31;;;18.06;60.75
76864;BME280;65834;52.364;9.754;2023-06-10T07:56:38;101144.19;;;18.10;60.77
76864;BME280;65834;52.364;9.754;2023-06-10T07:59:08;101139.69;;;18.16;60.38
76864;BME280;65834;52.364;9.754;2023-06-10T08:01:38;101141.38;;;18.17;60.03
76864;BME280;65834;52.364;9.754;2023-06-10T08:04:09;101152.50;;;18.22;60.29
76864;BME280;65834;52.364;9.754;2023-06-10T08:06:39;101156.00;;;18.29;59.63
76864;BME280;65834;52.364;9.754;2023-06-10T08:09:11;101148.00;;;18.27;59.58
76864;BME280;65834;52.364;9.754;2023-06-10T08:11:40;101149.63;;;18.35;60.05
76864;BME280;65834;52.364;9.754;2023-06-10T08:14:10;101148.78;;;18.34;59.87
76864;BME280;65834;52.364;9.754;2023-06-10T08:16:39;101146.66;;;18.36;59.64
76864;BME280;65834;52.364;9.754;2023-06-10T08:19:09;101143.66;;;18.45;59.57
76864;BME280;65834;52.364;9.754;2023-06-10T08:21:39;101140.91;;;18.45;59.58
76864;BME280;65834;52.364;9.754;2023-06-10T08:24:11;101146.78;;;18.48;59.43
76864;BME280;65834;52.364;9.754;2023-06-10T08:26:43;101144.47;;;18.52;58.99
76864;BME280;65834;52.364;9.754;2023-06-10T08:29:13;101137.88;;;18.53;59.05
76864;BME280;65834;52.364;9.754;2023-06-10T08:31:43;101138.28;;;18.56;59.05
76864;BME280;65834;52.364;9.754;2023-06-10T08:34:12;101137.81;;;18.59;58.96
76864;BME280;65834;52.364;9.754;2023-06-10T08:36:43;101131.50;;;18.59;58.88
76864;BME280;65834;52.364;9.754;2023-06-10T08:39:15;101136.06;;;18.65;58.94
76864;BME280;65834;52.364;9.754;2023-06-10T08:41:51;101140.81;;;18.76;58.99
76864;BME280;65834;52.364;9.754;2023-06-10T08:44:28;101137.81;;;18.77;59.01
76864;BME280;65834;52.364;9.754;2023-06-10T08:46:59;101135.34;;;18.76;58.76
76864;BME280;65834;52.364;9.754;2023-06-10T08:49:30;101130.22;;;18.79;58.48
76864;BME280;65834;52.364;9.754;2023-06-10T08:52:05;101130.50;;;18.89;57.86
76864;BME280;65834;52.364;9.754;2023-06-10T08:54:38;101122.53;;;18.88;57.66
76864;BME280;65834;52.364;9.754;2023-06-10T08:57:10;101132.78;;;18.92;57.67
76864;BME280;65834;52.364;9.754;2023-06-10T08:59:41;101137.59;;;18.97;57.74
76864;BME280;65834;52.364;9.754;2023-06-10T09:02:13;101127.28;;;19.11;57.75
76864;BME280;65834;52.364;9.754;2023-06-10T09:04:46;101129.56;;;19.14;57.88
76864;BME280;65834;52.364;9.754;2023-06-10T09:07:16;101126.09;;;19.07;57.29
76864;BME280;65834;52.364;9.754;2023-06-10T09:09:49;101130.41;;;19.14;57.41
76864;BME280;65834;52.364;9.754;2023-06-10T09:12:20;101127.44;;;19.16;57.37
76864;BME280;65834;52.364;9.754;2023-06-10T09:14:49;101126.59;;;19.15;57.19
76864;BME280;65834;52.364;9.754;2023-06-10T09:17:19;101119.13;;;19.22;57.21
76864;BME280;65834;52.364;9.754;2023-06-10T09:19:49;101118.03;;;19.23;57.04
76864;BME280;65834;52.364;9.754;2023-06-10T09:22:22;101117.13;;;19.29;56.58
76864;BME280;65834;52.364;9.754;2023-06-10T09:25:05;101114.06;;;19.37;56.11
76864;BME280;65834;52.364;9.754;2023-06-10T09:27:45;101115.97;;;19.37;56.02
76864;BME280;65834;52.364;9.754;2023-06-10T09:30:27;101119.13;;;19.40;56.16
76864;BME280;65834;52.364;9.754;2023-06-10T09:33:00;101110.41;;;19.43;56.30
76864;BME280;65834;52.364;9.754;2023-06-10T09:35:30;101113.56;;;19.59;56.00
76864;BME280;65834;52.364;9.754;2023-06-10T09:38:00;101113.31;;;19.60;56.18
76864;BME280;65834;52.364;9.754;2023-06-10T09:40:32;101110.94;;;19.64;55.98
76864;BME280;65834;52.364;9.754;2023-06-10T09:43:17;101108.56;;;19.67;55.94
76864;BME280;65834;52.364;9.754;2023-06-10T09:45:48;101106.66;;;19.68;56.14
76864;BME280;65834;52.364;9.754;2023-06-10T09:48:20;101104.66;;;19.75;56.09
76864;BME280;65834;52.364;9.754;2023-06-10T09:50:50;101109.91;;;19.88;55.60
76864;BME280;65834;52.364;9.754;2023-06-10T09:53:20;101107.91;;;19.95;55.30
76864;BME280;65834;52.364;9.754;2023-06-10T09:55:52;101115.31;;;19.94;55.56
76864;BME280;65834;52.364;9.754;2023-06-10T09:58:34;101112.56;;;19.94;55.30
76864;BME280;65834;52.364;9.754;2023-06-10T10:01:09;101098.72;;;20.01;55.46
76864;BME280;65834;52.364;9.754;2023-06-10T10:03:45;101104.09;;;20.19;54.97
76864;BME280;65834;52.364;9.754;2023-06-10T10:06:16;101112.13;;;20.32;54.95
76864;BME280;65834;52.364;9.754;2023-06-10T10:08:48;101108.63;;;20.25;55.12
76864;BME280;65834;52.364;9.754;2023-06-10T10:11:21;101103.66;;;20.45;54.79
76864;BME280;65834;52.364;9.754;2023-06-10T10:13:53;101099.22;;;20.44;54.33
76864;BME280;65834;52.364;9.754;2023-06-10T10:16:35;101108.03;;;20.58;53.91
76864;BME280;65834;52.364;9.754;2023-06-10T10:19:10;101101.25;;;20.61;53.03
76864;BME280;65834;52.364;9.754;2023-06-10T10:21:47;101108.75;;;20.65;53.32
76864;BME280;65834;52.364;9.754;2023-06-10T10:24:21;101110.31;;;20.73;53.11
76864;BME280;65834;52.364;9.754;2023-06-10T10:26:57;101119.13;;;20.75;53.23
76864;BME280;65834;52.364;9.754;2023-06-10T10:29:31;101115.31;;;20.76;53.54
76864;BME280;65834;52.364;9.754;2023-06-10T10:32:03;101118.75;;;20.83;53.58
76864;BME280;65834;52.364;9.754;2023-06-10T10:34:41;101125.69;;;20.85;54.22
76864;BME280;65834;52.364;9.754;2023-06-10T10:37:13;101113.94;;;20.90;54.18
76864;BME280;65834;52.364;9.754;2023-06-10T10:39:44;101114.03;;;20.95;54.52
76864;BME280;65834;52.364;9.754;2023-06-10T10:42:17;101100.66;;;21.10;54.07
76864;BME280;65834;52.364;9.754;2023-06-10T10:44:49;101098.97;;;21.09;54.60
76864;BME280;65834;52.364;9.754;2023-06-10T10:47:20;101095.25;;;21.60;54.48
76864;BME280;65834;52.364;9.754;2023-06-10T10:49:52;101091.16;;;21.62;53.90
76864;BME280;65834;52.364;9.754;2023-06-10T10:52:48;101103.09;;;21.51;54.41
76864;BME280;65834;52.364;9.754;2023-06-10T10:55:20;101104.28;;;21.55;54.48
76864;BME280;65834;52.364;9.754;2023-06-10T10:57:57;101095.09;;;21.67;54.43
76864;BME280;65834;52.364;9.754;2023-06-10T11:00:28;101086.75;;;21.61;55.06
76864;BME280;65834;52.364;9.754;2023-06-10T11:03:00;101089.69;;;21.72;54.53
76864;BME280;65834;52.364;9.754;2023-06-10T11:05:38;101101.38;;;21.79;54.38
76864;BME280;65834;52.364;9.754;2023-06-10T11:08:11;101101.38;;;21.79;54.93
76864;BME280;65834;52.364;9.754;2023-06-10T11:10:50;101091.03;;;21.86;54.89
76864;BME280;65834;52.364;9.754;2023-06-10T11:13:22;101093.88;;;21.91;54.76
76864;BME280;65834;52.364;9.754;2023-06-10T11:15:53;101094.81;;;21.96;55.18
76864;BME280;65834;52.364;9.754;2023-06-10T11:18:27;101094.81;;;22.13;54.48
76864;BME280;65834;52.364;9.754;2023-06-10T11:21:01;101094.53;;;22.31;54.20
76864;BME280;65834;52.364;9.754;2023-06-10T11:23:39;101093.34;;;22.27;54.10
76864;BME280;65834;52.364;9.754;2023-06-10T11:26:14;101084.34;;;22.32;54.03
76864;BME280;65834;52.364;9.754;2023-06-10T11:29:11;101084.34;;;22.32;54.55
76864;BME280;65834;52.364;9.754;2023-06-10T11:31:46;101085.38;;;22.47;53.53
76864;BME280;65834;52.364;9.754;2023-06-10T11:34:22;101078.47;;;22.45;54.23
76864;BME280;65834;52.364;9.754;2023-06-10T11:36:57;101080.53;;;22.54;53.24
76864;BME280;65834;52.364;9.754;2023-06-10T11:39:27;101071.75;;;22.57;53.21
76864;BME280;65834;52.364;9.754;2023-06-10T11:41:58;101071.31;;;22.65;52.96
76864;BME280;65834;52.364;9.754;2023-06-10T11:44:30;101074.09;;;22.65;52.74
76864;BME280;65834;52.364;9.754;2023-06-10T11:47:05;101072.81;;;22.73;52.59
76864;BME280;65834;52.364;9.754;2023-06-10T11:49:34;101071.00;;;22.84;51.33
76864;BME280;65834;52.364;9.754;2023-06-10T11:52:04;101068.88;;;22.91;51.45
76864;BME280;65834;52.364;9.754;2023-06-10T11:54:34;101067.03;;;23.23;50.71
76864;BME280;65834;52.364;9.754;2023-06-10T11:57:04;101060.47;;;23.02;51.49
76864;BME280;65834;52.364;9.754;2023-06-10T11:59:37;101064.75;;;23.68;50.67
76864;BME280;65834;52.364;9.754;2023-06-10T12:02:14;101065.53;;;23.37;50.36
76864;BME280;65834;52.364;9.754;2023-06-10T12:04:44;101057.88;;;23.44;50.28
76864;BME280;65834;52.364;9.754;2023-06-10T12:07:17;101058.88;;;23.33;50.53
76864;BME280;65834;52.364;9.754;2023-06-10T12:09:59;101054.06;;;23.50;50.46
76864;BME280;65834;52.364;9.754;2023-06-10T12:12:40;101054.69;;;23.57;49.66
76864;BME280;65834;52.364;9.754;2023-06-10T12:15:23;101053.56;;;23.53;50.15
76864;BME280;65834;52.364;9.754;2023-06-10T12:17:55;101048.97;;;23.64;50.26
76864;BME280;65834;52.364;9.754;2023-06-10T12:20:26;101054.38;;;23.81;49.95
76864;BME280;65834;52.364;9.754;2023-06-10T12:22:56;101044.28;;;24.01;49.17
76864;BME280;65834;52.364;9.754;2023-06-10T12:25:27;101038.34;;;23.83;49.39
76864;BME280;65834;52.364;9.754;2023-06-10T12:27:58;101047.56;;;23.93;49.15
76864;BME280;65834;52.364;9.754;2023-06-10T12:30:31;101040.56;;;24.17;48.14
76864;BME280;65834;52.364;9.754;2023-06-10T12:33:01;101041.34;;;24.13;48.57
76864;BME280;65834;52.364;9.754;2023-06-10T12:35:31;101031.44;;;24.17;47.60
76864;BME280;65834;52.364;9.754;2023-06-10T12:38:02;101034.00;;;24.34;47.82
76864;BME280;65834;52.364;9.754;2023-06-10T12:40:36;101039.13;;;24.57;47.74
76864;BME280;65834;52.364;9.754;2023-06-10T12:43:07;101032.91;;;24.40;47.21
76864;BME280;65834;52.364;9.754;2023-06-10T12:45:41;101027.38;;;24.30;47.24
76864;BME280;65834;52.364;9.754;2023-06-10T12:48:17;101026.28;;;24.36;47.52
76864;BME280;65834;52.364;9.754;2023-06-10T12:50:51;101018.28;;;24.39;47.06
76864;BME280;65834;52.364;9.754;2023-06-10T12:53:21;101017.47;;;24.44;47.29
76864;BME280;65834;52.364;9.754;2023-06-10T12:55:53;101012.28;;;24.62;46.76
76864;BME280;65834;52.364;9.754;2023-06-10T12:58:23;101010.63;;;24.61;47.17
76864;BME280;65834;52.364;9.754;2023-06-10T13:00:56;101009.72;;;25.13;45.80
76864;BME280;65834;52.364;9.754;2023-06-10T13:03:26;101014.09;;;24.99;46.41
76864;BME280;65834;52.364;9.754;2023-06-10T13:05:55;101003.28;;;24.82;46.94
76864;BME280;65834;52.364;9.754;2023-06-10T13:08:25;101010.25;;;25.20;45.78
76864;BME280;65834;52.364;9.754;2023-06-10T13:10:55;101001.97;;;25.15;46.35
76864;BME280;65834;52.364;9.754;2023-06-10T13:13:24;101007.84;;;25.49;45.03